Main page
METAR-TAF:

METAR-TAF

Airports :

Whiting_Field_Naval_Air_Station_South_Airport

Milton, Florida, United States

latitude: 30-41-50N, longitude: 087-01-12W, elevation: 177 ft

Current weather observation

The report was made 1 hour and 13 minutes ago, at 20:56 UTC
Wind 10 mph from the South with gusts up to 26 mph
Temperature 77°F
Humidity 74%
Pressure 30.10 in. Hg
Visibility: 10 miles
Few clouds at a height of 600 ft
Broken clouds at a height of 1500 ft
Broken clouds at a height of 4600 ft

METAR: KNDZ 272056Z 19009G23KT 10SM FEW006 BKN015 BKN046 25/20 A3010 RMK AO2 SLP180 6//// T02500200 56018 PNO $

Time: 16:09 (22:09 UTC)


TAF: missing

Weather observations and forecasts of more than 4000 airports (METAR and TAF reports).

The available stations are represented by yellow and red dots on the map.

Hover mouse over dot to see the name of the station.

Then click to see weather observations and forecasts.

To change the map : click on the green buttons with a black cross to zoom in, on the green button with a dash to zoom out, or on the green arrows for adjacent maps.


METAR-TAF: